createdAt,value
2022-10-05T00:01:30.512Z,4.82
2022-10-05T00:04:07.539Z,4.90
2022-10-05T00:06:36.401Z,7.35
2022-10-05T00:09:13.721Z,4.00
2022-10-05T00:11:44.704Z,7.22
2022-10-05T00:14:19.640Z,5.93
2022-10-05T00:16:49.416Z,4.50
2022-10-05T00:19:27.377Z,8.68
2022-10-05T00:21:59.738Z,5.80
2022-10-05T00:24:28.627Z,9.38
2022-10-05T00:27:01.873Z,12.40
2022-10-05T00:29:30.665Z,6.35
2022-10-05T00:31:59.993Z,5.32
2022-10-05T00:34:28.809Z,6.18
2022-10-05T00:36:57.602Z,7.43
2022-10-05T00:39:26.874Z,4.97
2022-10-05T00:42:12.178Z,6.00
2022-10-05T00:44:47.516Z,3.90
2022-10-05T00:47:42.043Z,7.55
2022-10-05T00:50:33.294Z,6.90
2022-10-05T00:53:13.375Z,8.68
2022-10-05T00:55:55.292Z,5.60
2022-10-05T00:58:43.937Z,5.20
2022-10-05T01:01:16.284Z,4.63
2022-10-05T01:03:56.650Z,3.58
2022-10-05T01:06:37.048Z,4.30
2022-10-05T01:09:16.861Z,4.88
2022-10-05T01:11:54.559Z,5.30
2022-10-05T01:14:32.306Z,7.13
2022-10-05T01:17:07.125Z,12.60
2022-10-05T01:20:09.288Z,6.00
2022-10-05T01:23:00.180Z,5.93
2022-10-05T01:25:36.962Z,4.25
2022-10-05T01:28:11.307Z,6.45
2022-10-05T01:30:48.931Z,3.22
2022-10-05T01:33:22.420Z,5.03
2022-10-05T01:35:59.955Z,10.38
2022-10-05T01:38:41.163Z,8.93
2022-10-05T01:41:20.102Z,6.05
2022-10-05T01:43:55.160Z,6.25
2022-10-05T01:46:31.852Z,4.57
2022-10-05T01:49:15.662Z,6.10
2022-10-05T01:51:54.875Z,8.90
2022-10-05T01:54:33.515Z,6.32
2022-10-05T01:57:13.667Z,6.70
2022-10-05T01:59:57.486Z,7.07
2022-10-05T02:02:29.995Z,3.95
2022-10-05T02:05:05.596Z,7.47
2022-10-05T02:07:39.977Z,7.47
2022-10-05T02:10:19.319Z,4.22
2022-10-05T02:12:50.232Z,6.13
2022-10-05T02:15:25.184Z,6.15
2022-10-05T02:18:04.526Z,9.95
2022-10-05T02:20:35.710Z,8.05
2022-10-05T02:23:09.465Z,7.72
2022-10-05T02:25:41.398Z,8.18
2022-10-05T02:28:16.018Z,8.80
2022-10-05T02:30:53.622Z,8.02
2022-10-05T02:33:28.170Z,8.45
2022-10-05T02:36:02.714Z,7.80
2022-10-05T02:38:41.286Z,8.25
2022-10-05T02:41:20.353Z,8.38
2022-10-05T02:43:55.511Z,7.97
2022-10-05T02:46:34.473Z,6.30
2022-10-05T02:49:15.243Z,17.67
2022-10-05T02:51:52.112Z,10.55
2022-10-05T02:54:38.824Z,8.13
2022-10-05T02:57:15.848Z,10.70
2022-10-05T02:59:49.760Z,9.25
2022-10-05T03:02:24.636Z,10.77
2022-10-05T03:05:05.858Z,8.32
2022-10-05T03:07:44.404Z,8.43
2022-10-05T03:10:20.233Z,11.93
2022-10-05T03:13:00.580Z,10.30
2022-10-05T03:15:48.927Z,15.73
2022-10-05T03:18:30.751Z,13.55
2022-10-05T03:21:10.693Z,13.77
2022-10-05T03:23:56.436Z,16.35
2022-10-05T03:26:39.477Z,13.60
2022-10-05T03:29:22.096Z,12.48
2022-10-05T03:31:59.300Z,13.02
2022-10-05T03:34:37.023Z,11.93
2022-10-05T03:37:12.647Z,38.47
2022-10-05T03:39:48.767Z,10.90
2022-10-05T03:42:26.376Z,10.40
2022-10-05T03:45:00.317Z,11.73
2022-10-05T03:47:37.309Z,8.95
2022-10-05T03:50:20.476Z,9.75
2022-10-05T03:52:57.581Z,7.25
2022-10-05T03:55:32.688Z,9.60
2022-10-05T04:00:34.815Z,9.45
2022-10-05T04:03:13.628Z,11.52
2022-10-05T04:05:50.616Z,10.85
2022-10-05T04:08:27.839Z,13.23
2022-10-05T04:11:00.715Z,10.30
2022-10-05T04:13:35.496Z,13.57
2022-10-05T04:16:11.167Z,9.57
2022-10-05T04:18:45.951Z,13.18
2022-10-05T04:21:24.872Z,8.10
2022-10-05T04:24:01.811Z,10.50
2022-10-05T04:26:38.313Z,12.90
2022-10-05T04:29:17.614Z,11.57
2022-10-05T04:32:02.888Z,13.38
2022-10-05T04:34:48.962Z,10.68
2022-10-05T04:37:24.857Z,11.35
2022-10-05T04:40:06.891Z,15.07
2022-10-05T04:42:41.110Z,12.15
2022-10-05T04:45:20.055Z,21.15
2022-10-05T04:48:06.950Z,27.77
2022-10-05T04:50:50.602Z,19.60
2022-10-05T04:53:32.956Z,24.55
2022-10-05T04:56:10.691Z,26.27
2022-10-05T04:58:58.155Z,25.45
2022-10-05T05:01:46.863Z,20.48
2022-10-05T05:04:36.833Z,14.30
2022-10-05T05:07:19.184Z,24.60
2022-10-05T05:10:20.388Z,16.33
2022-10-05T05:12:59.436Z,18.90
2022-10-05T05:15:47.085Z,19.02
2022-10-05T05:18:39.633Z,15.95
2022-10-05T05:21:21.362Z,21.80
2022-10-05T05:23:58.215Z,16.40
2022-10-05T05:26:41.733Z,16.48
2022-10-05T05:29:21.089Z,18.20
2022-10-05T05:31:56.516Z,15.98
2022-10-05T05:34:41.339Z,13.32
2022-10-05T05:37:19.462Z,12.93
2022-10-05T05:39:55.445Z,15.18
2022-10-05T05:42:38.501Z,9.95
2022-10-05T05:45:17.711Z,8.18
2022-10-05T05:47:53.841Z,8.55
2022-10-05T05:50:36.004Z,11.57
2022-10-05T05:53:13.066Z,7.25
2022-10-05T05:55:46.119Z,9.27
2022-10-05T05:58:23.188Z,11.55
2022-10-05T06:00:57.743Z,7.55
2022-10-05T06:03:33.279Z,7.53
2022-10-05T06:06:06.905Z,4.30
2022-10-05T06:08:41.031Z,4.97
2022-10-05T06:11:37.004Z,4.97
2022-10-05T06:14:16.805Z,7.60
2022-10-05T06:16:54.530Z,5.78
2022-10-05T06:19:25.474Z,4.82
2022-10-05T06:22:00.303Z,4.72
2022-10-05T06:24:37.535Z,6.72
2022-10-05T06:27:20.023Z,5.88
2022-10-05T06:30:03.119Z,7.35
2022-10-05T06:32:36.403Z,4.53
2022-10-05T06:35:19.121Z,4.47
2022-10-05T06:38:05.215Z,3.53
2022-10-05T06:43:32.431Z,4.25
2022-10-05T06:46:36.776Z,4.50
2022-10-05T06:49:26.175Z,3.42
2022-10-05T06:52:26.584Z,3.10
2022-10-05T06:55:14.201Z,2.55
2022-10-05T06:58:08.183Z,3.83
2022-10-05T07:00:45.112Z,3.85
2022-10-05T07:03:23.906Z,2.85
2022-10-05T07:05:59.132Z,4.97
2022-10-05T07:08:53.461Z,5.07
2022-10-05T07:11:36.739Z,4.13
2022-10-05T07:14:20.759Z,5.05
2022-10-05T07:17:09.061Z,3.53
2022-10-05T07:19:47.636Z,3.65
2022-10-05T07:22:34.532Z,2.70
2022-10-05T07:25:12.531Z,4.72
2022-10-05T07:27:50.984Z,4.10
2022-10-05T07:30:21.656Z,3.90
2022-10-05T07:33:00.849Z,1.58
2022-10-05T07:36:04.037Z,1.90
2022-10-05T07:38:39.848Z,3.92
2022-10-05T07:41:16.920Z,4.60
2022-10-05T07:44:03.013Z,10.60
2022-10-05T07:46:47.433Z,2.72
2022-10-05T07:49:24.619Z,4.00
2022-10-05T07:51:58.483Z,2.53
2022-10-05T07:54:35.560Z,2.03
2022-10-05T07:57:15.881Z,2.25
2022-10-05T07:59:53.796Z,6.10
2022-10-05T08:02:28.257Z,6.72
2022-10-05T08:05:04.072Z,5.28
2022-10-05T08:07:37.071Z,2.63
2022-10-05T08:10:19.650Z,3.33
2022-10-05T08:13:01.484Z,1.75
2022-10-05T08:15:35.798Z,3.95
2022-10-05T08:18:12.800Z,1.55
2022-10-05T08:20:46.703Z,8.85
2022-10-05T08:23:35.995Z,2.67
2022-10-05T08:26:17.628Z,3.53
2022-10-05T08:28:52.865Z,3.50
2022-10-05T08:33:59.749Z,5.03
2022-10-05T08:36:54.073Z,2.92
2022-10-05T08:39:28.161Z,2.35
2022-10-05T08:42:33.947Z,1.23
2022-10-05T08:45:56.429Z,4.33
2022-10-05T08:48:57.633Z,1.50
2022-10-05T08:51:51.267Z,2.53
2022-10-05T08:54:38.032Z,1.48
2022-10-05T08:57:36.317Z,1.88
2022-10-05T09:00:12.994Z,1.13
2022-10-05T09:03:05.509Z,0.93
2022-10-05T09:06:01.231Z,1.50
2022-10-05T09:09:03.341Z,2.47
2022-10-05T09:11:37.457Z,1.90
2022-10-05T09:14:22.939Z,2.55
2022-10-05T09:19:54.207Z,1.00
2022-10-05T09:22:37.968Z,1.15
2022-10-05T09:25:23.643Z,1.17
2022-10-05T09:28:04.673Z,0.50
2022-10-05T09:30:53.674Z,0.55
2022-10-05T09:33:44.182Z,1.75
2022-10-05T09:36:35.579Z,0.70
2022-10-05T09:39:22.232Z,0.10
2022-10-05T09:42:19.049Z,0.30
2022-10-05T09:45:21.363Z,0.50
2022-10-05T09:48:32.452Z,0.55
2022-10-05T09:51:29.029Z,6.28
2022-10-05T09:54:29.290Z,2.45
2022-10-05T09:57:43.842Z,1.05
2022-10-05T10:00:32.950Z,5.60
2022-10-05T10:03:26.078Z,0.30
2022-10-05T10:06:18.714Z,1.17
2022-10-05T10:09:03.437Z,0.88
2022-10-05T10:11:45.589Z,0.32
2022-10-05T10:14:43.232Z,0.30
2022-10-05T10:17:33.484Z,0.25
2022-10-05T10:20:19.442Z,0.30
2022-10-05T10:23:13.458Z,0.40
2022-10-05T10:26:13.051Z,1.27
2022-10-05T10:29:00.335Z,0.82
2022-10-05T10:31:44.075Z,0.45
2022-10-05T10:34:40.900Z,0.65
2022-10-05T10:37:34.786Z,0.85
2022-10-05T10:40:27.887Z,1.27
2022-10-05T10:43:24.416Z,11.15
2022-10-05T10:46:03.372Z,0.55
2022-10-05T10:48:55.279Z,1.90
2022-10-05T10:51:55.849Z,1.65
2022-10-05T10:54:38.332Z,1.10
2022-10-05T10:57:11.137Z,0.25
2022-10-05T11:00:16.717Z,7.57
2022-10-05T11:03:11.953Z,0.75
2022-10-05T11:06:18.295Z,3.13
2022-10-05T11:09:14.586Z,1.45
2022-10-05T11:12:19.502Z,2.75
2022-10-05T11:15:17.721Z,0.90
2022-10-05T11:18:16.751Z,2.70
2022-10-05T11:21:10.631Z,0.68
2022-10-05T11:24:15.470Z,0.30
2022-10-05T11:27:12.754Z,0.22
2022-10-05T11:30:20.029Z,0.60
2022-10-05T11:33:37.339Z,0.47
2022-10-05T11:36:33.168Z,2.58
2022-10-05T11:39:38.799Z,0.17
2022-10-05T11:42:36.005Z,0.43
2022-10-05T11:45:33.194Z,1.08
2022-10-05T11:48:24.428Z,0.28
2022-10-05T11:51:10.261Z,4.00
2022-10-05T11:53:44.203Z,0.47
2022-10-05T11:56:25.046Z,0.40
2022-10-05T11:59:01.170Z,2.50
2022-10-05T12:01:37.826Z,0.65
2022-10-05T12:04:16.963Z,0.60
2022-10-05T12:07:05.126Z,0.63
2022-10-05T12:10:17.565Z,0.03
2022-10-05T12:13:02.650Z,0.77
2022-10-05T12:15:43.284Z,0.43
2022-10-05T12:18:17.535Z,0.10
2022-10-05T12:20:52.008Z,7.32
2022-10-05T12:23:26.008Z,0.50
2022-10-05T12:26:02.306Z,0.80
2022-10-05T12:28:42.406Z,0.10
2022-10-05T12:31:26.257Z,1.23
2022-10-05T12:34:05.110Z,0.20
2022-10-05T12:37:03.061Z,2.10
2022-10-05T12:39:39.409Z,4.55
2022-10-05T12:42:26.069Z,0.77
2022-10-05T12:45:15.009Z,0.68
2022-10-05T12:48:06.393Z,0.10
2022-10-05T12:50:41.140Z,5.97
2022-10-05T12:53:29.487Z,0.30
2022-10-05T12:56:05.477Z,0.88
2022-10-05T12:58:46.012Z,1.27
2022-10-05T13:01:34.323Z,3.63
2022-10-05T13:04:19.098Z,0.10
2022-10-05T13:07:05.752Z,0.35
2022-10-05T13:09:41.332Z,0.70
2022-10-05T13:12:20.891Z,0.10
2022-10-05T13:15:01.124Z,0.82
2022-10-05T13:17:37.811Z,0.20
2022-10-05T13:20:28.069Z,0.88
2022-10-05T13:23:05.201Z,5.05
2022-10-05T13:25:38.197Z,0.75
2022-10-05T13:28:16.262Z,0.60
2022-10-05T13:30:56.185Z,0.40
2022-10-05T13:33:33.062Z,0.47
2022-10-05T13:36:12.588Z,0.30
2022-10-05T13:38:55.268Z,2.70
2022-10-05T13:41:34.389Z,0.32
2022-10-05T13:44:17.937Z,0.98
2022-10-05T13:46:50.340Z,1.27
2022-10-05T13:49:28.962Z,6.43
2022-10-05T13:52:12.091Z,3.83
2022-10-05T13:54:47.709Z,1.75
2022-10-05T13:57:31.093Z,1.33
2022-10-05T14:00:03.916Z,0.88
2022-10-05T14:02:44.529Z,0.82
2022-10-05T14:05:19.174Z,0.30
2022-10-05T14:07:55.440Z,0.57
2022-10-05T14:10:38.207Z,6.18
2022-10-05T14:13:24.417Z,3.22
2022-10-05T14:16:05.467Z,2.20
2022-10-05T14:18:38.232Z,1.25
2022-10-05T14:21:19.719Z,0.47
2022-10-05T14:23:50.638Z,0.93
2022-10-05T14:26:31.531Z,1.02
2022-10-05T14:29:02.972Z,3.38
2022-10-05T14:31:36.727Z,0.30
2022-10-05T14:34:36.675Z,3.50
2022-10-05T14:37:19.201Z,0.47
2022-10-05T14:39:52.040Z,1.80
2022-10-05T14:42:23.544Z,2.53
2022-10-05T14:45:12.760Z,0.57
2022-10-05T14:47:48.926Z,0.40
2022-10-05T14:50:21.333Z,7.10
2022-10-05T14:53:08.702Z,1.65
2022-10-05T14:55:55.793Z,1.27
2022-10-05T14:58:40.154Z,1.08
2022-10-05T15:01:17.632Z,0.63
2022-10-05T15:03:52.133Z,1.33
2022-10-05T15:06:28.883Z,2.78
2022-10-05T15:09:17.640Z,2.53
2022-10-05T15:11:52.630Z,2.92
2022-10-05T15:14:25.316Z,2.55
2022-10-05T15:16:58.955Z,0.85
2022-10-05T15:19:39.234Z,2.17
2022-10-05T15:22:20.023Z,2.67
2022-10-05T15:24:58.410Z,1.05
2022-10-05T15:27:40.960Z,1.70
2022-10-05T15:30:12.709Z,1.58
2022-10-05T15:32:55.542Z,1.88
2022-10-05T15:35:36.808Z,4.20
2022-10-05T15:38:16.396Z,1.27
2022-10-05T15:40:51.612Z,1.45
2022-10-05T15:46:02.778Z,0.70
2022-10-05T15:48:41.209Z,3.75
2022-10-05T15:51:18.840Z,5.10
2022-10-05T15:54:17.198Z,1.27
2022-10-05T15:56:51.261Z,1.85
2022-10-05T15:59:30.417Z,1.08
2022-10-05T16:02:02.182Z,1.08
2022-10-05T16:04:42.750Z,1.15
2022-10-05T16:07:36.225Z,2.28
2022-10-05T16:10:16.726Z,1.00
2022-10-05T16:13:01.742Z,1.50
2022-10-05T16:15:38.679Z,1.60
2022-10-05T16:18:41.033Z,1.48
2022-10-05T16:21:18.937Z,1.15
2022-10-05T16:24:06.357Z,2.38
2022-10-05T16:26:55.569Z,2.92
2022-10-05T16:29:35.049Z,4.30
2022-10-05T16:32:13.255Z,1.52
2022-10-05T16:34:57.444Z,0.93
2022-10-05T16:37:39.170Z,0.57
2022-10-05T16:40:20.417Z,2.28
2022-10-05T16:43:00.986Z,2.80
2022-10-05T16:45:45.746Z,6.18
2022-10-05T16:48:25.517Z,10.50
2022-10-05T16:51:13.651Z,6.22
2022-10-05T16:53:46.170Z,1.73
2022-10-05T16:56:18.534Z,8.95
2022-10-05T16:59:02.080Z,9.52
2022-10-05T17:01:43.848Z,8.85
2022-10-05T17:04:27.084Z,13.30
2022-10-05T17:07:16.825Z,8.57
2022-10-05T17:10:13.985Z,14.82
2022-10-05T17:12:54.503Z,18.23
2022-10-05T17:15:34.272Z,4.80
2022-10-05T17:18:27.449Z,3.28
2022-10-05T17:21:07.871Z,10.77
2022-10-05T17:23:53.492Z,8.57
2022-10-05T17:26:54.962Z,2.92
2022-10-05T17:29:29.027Z,8.00
2022-10-05T17:32:03.061Z,7.38
2022-10-05T17:34:34.369Z,10.23
2022-10-05T17:37:35.612Z,2.15
2022-10-05T17:40:32.076Z,2.55
2022-10-05T17:43:02.315Z,3.13
2022-10-05T17:45:54.151Z,3.45
2022-10-05T17:49:01.399Z,2.60
2022-10-05T17:52:17.617Z,4.47
2022-10-05T17:55:20.482Z,5.55
2022-10-05T17:57:49.359Z,3.15
2022-10-05T18:00:56.186Z,3.17
2022-10-05T18:03:43.201Z,5.50
2022-10-05T18:06:44.879Z,9.68
2022-10-05T18:09:21.790Z,5.30
2022-10-05T18:12:18.520Z,7.00
2022-10-05T18:15:03.785Z,7.60
2022-10-05T18:17:41.233Z,9.95
2022-10-05T18:20:30.150Z,9.80
2022-10-05T18:23:30.219Z,11.75
2022-10-05T18:26:09.208Z,11.52
2022-10-05T18:28:53.824Z,12.73
2022-10-05T18:31:33.929Z,18.70
2022-10-05T18:34:28.345Z,23.65
2022-10-05T18:37:10.047Z,23.55
2022-10-05T18:39:55.613Z,23.23
2022-10-05T18:42:34.917Z,20.98
2022-10-05T18:45:21.473Z,16.00
2022-10-05T18:48:02.686Z,9.55
2022-10-05T18:50:43.098Z,9.85
2022-10-05T18:53:26.595Z,9.48
2022-10-05T18:56:02.300Z,15.50
2022-10-05T18:58:37.971Z,9.85
2022-10-05T19:01:47.661Z,6.88
2022-10-05T19:04:26.546Z,6.60
2022-10-05T19:07:05.936Z,6.57
2022-10-05T19:09:50.856Z,10.23
2022-10-05T19:12:31.199Z,6.37
2022-10-05T19:15:10.703Z,8.80
2022-10-05T19:17:58.619Z,8.85
2022-10-05T19:20:37.321Z,6.88
2022-10-05T19:23:40.034Z,7.45
2022-10-05T19:26:16.177Z,24.20
2022-10-05T19:28:58.111Z,14.43
2022-10-05T19:31:41.184Z,31.95
2022-10-05T19:34:24.497Z,33.03
2022-10-05T19:37:01.280Z,24.70
2022-10-05T19:39:36.984Z,20.52
2022-10-05T19:42:24.811Z,14.27
2022-10-05T19:45:04.516Z,25.50
2022-10-05T19:47:47.199Z,16.55
2022-10-05T19:50:28.832Z,14.65
2022-10-05T19:53:08.351Z,19.00
2022-10-05T19:55:41.720Z,11.82
2022-10-05T19:58:22.043Z,65.30
2022-10-05T20:00:56.943Z,78.50
2022-10-05T20:03:29.713Z,45.13
2022-10-05T20:06:01.991Z,26.25
2022-10-05T20:08:39.791Z,24.63
2022-10-05T20:11:14.254Z,24.02
2022-10-05T20:13:44.885Z,23.05
2022-10-05T20:16:47.637Z,21.50
2022-10-05T20:19:54.021Z,32.58
2022-10-05T20:22:34.336Z,19.00
2022-10-05T20:25:06.811Z,21.27
2022-10-05T20:27:43.510Z,12.52
2022-10-05T20:30:15.435Z,18.70
2022-10-05T20:32:45.681Z,23.05
2022-10-05T20:35:15.823Z,25.23
2022-10-05T20:37:46.148Z,19.85
2022-10-05T20:40:15.443Z,20.70
2022-10-05T20:42:44.450Z,25.13
2022-10-05T20:45:14.416Z,20.58
2022-10-05T20:47:43.228Z,23.85
2022-10-05T20:50:12.205Z,18.50
2022-10-05T20:52:41.250Z,15.38
2022-10-05T20:55:13.005Z,15.07
2022-10-05T20:57:42.716Z,19.60
2022-10-05T21:00:13.258Z,18.38
2022-10-05T21:02:42.292Z,11.88
2022-10-05T21:05:11.204Z,15.52
2022-10-05T21:07:40.954Z,9.65
2022-10-05T21:10:11.802Z,21.48
2022-10-05T21:12:41.150Z,17.90
2022-10-05T21:15:10.633Z,16.60
2022-10-05T21:17:40.057Z,13.52
2022-10-05T21:20:11.617Z,14.43
2022-10-05T21:22:40.538Z,16.33
2022-10-05T21:25:11.347Z,19.00
2022-10-05T21:27:41.171Z,15.05
2022-10-05T21:30:11.030Z,14.27
2022-10-05T21:32:44.213Z,9.73
2022-10-05T21:35:13.610Z,17.17
2022-10-05T21:37:42.420Z,17.30
2022-10-05T21:40:12.935Z,13.15
2022-10-05T21:42:41.831Z,12.32
2022-10-05T21:45:11.476Z,13.23
2022-10-05T21:47:40.321Z,15.57
2022-10-05T21:50:10.349Z,14.25
2022-10-05T21:52:39.242Z,14.20
2022-10-05T21:55:09.196Z,23.20
2022-10-05T21:57:40.910Z,16.35
2022-10-05T22:00:11.082Z,15.27
2022-10-05T22:02:39.984Z,15.93
2022-10-05T22:05:09.728Z,16.38
2022-10-05T22:07:38.558Z,22.65
2022-10-05T22:10:09.434Z,11.10
2022-10-05T22:12:39.658Z,10.75
2022-10-05T22:15:09.842Z,15.40
2022-10-05T22:17:38.946Z,10.45
2022-10-05T22:20:11.882Z,12.65
2022-10-05T22:22:41.107Z,14.85
2022-10-05T22:25:10.200Z,14.90
2022-10-05T22:27:41.171Z,23.08
2022-10-05T22:30:11.033Z,15.90
2022-10-05T22:32:39.916Z,12.15
2022-10-05T22:35:11.689Z,11.27
2022-10-05T22:37:40.935Z,10.90
2022-10-05T22:40:11.293Z,15.50
2022-10-05T22:42:42.303Z,17.27
2022-10-05T22:45:11.172Z,18.17
2022-10-05T22:47:39.975Z,15.57
2022-10-05T22:50:10.661Z,13.02
2022-10-05T22:52:39.503Z,21.80
2022-10-05T22:55:09.124Z,9.13
2022-10-05T22:57:43.700Z,9.13
2022-10-05T23:00:13.712Z,11.57
2022-10-05T23:02:44.921Z,13.20
2022-10-05T23:05:14.743Z,11.43
2022-10-05T23:07:45.168Z,18.65
2022-10-05T23:10:16.782Z,19.65
2022-10-05T23:13:00.374Z,16.13
2022-10-05T23:15:29.860Z,17.67
2022-10-05T23:17:59.178Z,16.55
2022-10-05T23:20:28.119Z,23.35
2022-10-05T23:22:57.001Z,23.70
2022-10-05T23:25:25.834Z,21.50
2022-10-05T23:27:56.071Z,26.35
2022-10-05T23:30:25.139Z,15.10
2022-10-05T23:32:54.206Z,10.80
2022-10-05T23:35:23.300Z,9.05
2022-10-05T23:37:52.099Z,11.00
2022-10-05T23:40:21.073Z,9.00
2022-10-05T23:42:50.211Z,9.73
2022-10-05T23:45:20.531Z,11.68
2022-10-05T23:47:49.374Z,10.77
2022-10-05T23:50:18.477Z,12.65
2022-10-05T23:52:47.365Z,7.28
2022-10-05T23:55:16.313Z,11.88
2022-10-05T23:57:45.248Z,6.15
